sensor_id;sensor_type;location;lat;lon;timestamp;P1;durP1;ratioP1;P2;durP2;ratioP2
13147;SDS011;6639;50.956;4.242;2023-02-28T00:01:10;7.23;;;5.17;;
13147;SDS011;6639;50.956;4.242;2023-02-28T00:03:37;5.80;;;5.20;;
13147;SDS011;6639;50.956;4.242;2023-02-28T00:06:05;6.83;;;5.03;;
13147;SDS011;6639;50.956;4.242;2023-02-28T00:08:33;6.00;;;5.20;;
13147;SDS011;6639;50.956;4.242;2023-02-28T00:11:02;8.27;;;5.10;;
13147;SDS011;6639;50.956;4.242;2023-02-28T00:13:30;6.07;;;5.03;;
13147;SDS011;6639;50.956;4.242;2023-02-28T00:16:01;6.57;;;4.87;;
13147;SDS011;6639;50.956;4.242;2023-02-28T00:18:30;5.63;;;5.07;;
13147;SDS011;6639;50.956;4.242;2023-02-28T00:20:57;5.07;;;4.67;;
13147;SDS011;6639;50.956;4.242;2023-02-28T00:23:25;6.20;;;5.60;;
13147;SDS011;6639;50.956;4.242;2023-02-28T00:25:52;7.13;;;4.60;;
13147;SDS011;6639;50.956;4.242;2023-02-28T00:28:21;5.57;;;5.07;;
13147;SDS011;6639;50.956;4.242;2023-02-28T00:30:50;5.03;;;4.63;;
13147;SDS011;6639;50.956;4.242;2023-02-28T00:33:16;5.07;;;4.57;;
13147;SDS011;6639;50.956;4.242;2023-02-28T00:35:43;5.20;;;4.60;;
13147;SDS011;6639;50.956;4.242;2023-02-28T00:38:12;5.57;;;5.00;;
13147;SDS011;6639;50.956;4.242;2023-02-28T00:40:39;4.70;;;4.07;;
13147;SDS011;6639;50.956;4.242;2023-02-28T00:43:06;5.50;;;5.00;;
13147;SDS011;6639;50.956;4.242;2023-02-28T00:45:34;6.93;;;5.07;;
13147;SDS011;6639;50.956;4.242;2023-02-28T00:48:01;6.00;;;5.40;;
13147;SDS011;6639;50.956;4.242;2023-02-28T00:50:29;5.47;;;4.83;;
13147;SDS011;6639;50.956;4.242;2023-02-28T00:52:56;5.23;;;4.80;;
13147;SDS011;6639;50.956;4.242;2023-02-28T00:55:24;5.50;;;4.87;;
13147;SDS011;6639;50.956;4.242;2023-02-28T00:57:51;6.20;;;5.47;;
13147;SDS011;6639;50.956;4.242;2023-02-28T01:00:19;5.83;;;5.20;;
13147;SDS011;6639;50.956;4.242;2023-02-28T01:02:48;5.80;;;5.30;;
13147;SDS011;6639;50.956;4.242;2023-02-28T01:05:15;6.37;;;5.70;;
13147;SDS011;6639;50.956;4.242;2023-02-28T01:07:41;7.37;;;5.33;;
13147;SDS011;6639;50.956;4.242;2023-02-28T01:10:09;5.63;;;5.13;;
13147;SDS011;6639;50.956;4.242;2023-02-28T01:12:37;5.50;;;4.90;;
13147;SDS011;6639;50.956;4.242;2023-02-28T01:15:04;5.67;;;5.10;;
13147;SDS011;6639;50.956;4.242;2023-02-28T01:17:32;5.17;;;4.67;;
13147;SDS011;6639;50.956;4.242;2023-02-28T01:20:00;5.47;;;4.73;;
13147;SDS011;6639;50.956;4.242;2023-02-28T01:22:27;6.17;;;4.83;;
13147;SDS011;6639;50.956;4.242;2023-02-28T01:24:54;5.47;;;4.97;;
13147;SDS011;6639;50.956;4.242;2023-02-28T01:27:21;6.97;;;5.57;;
13147;SDS011;6639;50.956;4.242;2023-02-28T01:29:48;6.13;;;5.20;;
13147;SDS011;6639;50.956;4.242;2023-02-28T01:32:16;5.60;;;5.10;;
13147;SDS011;6639;50.956;4.242;2023-02-28T01:34:43;6.50;;;5.67;;
13147;SDS011;6639;50.956;4.242;2023-02-28T01:37:12;5.27;;;4.70;;
13147;SDS011;6639;50.956;4.242;2023-02-28T01:39:39;6.53;;;5.87;;
13147;SDS011;6639;50.956;4.242;2023-02-28T01:42:07;5.93;;;5.43;;
13147;SDS011;6639;50.956;4.242;2023-02-28T01:44:55;5.67;;;5.10;;
13147;SDS011;6639;50.956;4.242;2023-02-28T01:47:33;6.57;;;5.10;;
13147;SDS011;6639;50.956;4.242;2023-02-28T01:50:04;6.30;;;5.50;;
13147;SDS011;6639;50.956;4.242;2023-02-28T01:52:36;8.87;;;6.17;;
13147;SDS011;6639;50.956;4.242;2023-02-28T01:55:04;9.00;;;6.70;;
13147;SDS011;6639;50.956;4.242;2023-02-28T01:57:38;6.83;;;6.17;;
13147;SDS011;6639;50.956;4.242;2023-02-28T02:00:09;6.60;;;5.87;;
13147;SDS011;6639;50.956;4.242;2023-02-28T02:02:40;7.47;;;6.03;;
13147;SDS011;6639;50.956;4.242;2023-02-28T02:05:10;8.50;;;6.10;;
13147;SDS011;6639;50.956;4.242;2023-02-28T02:07:43;8.80;;;6.30;;
13147;SDS011;6639;50.956;4.242;2023-02-28T02:10:13;7.07;;;6.37;;
13147;SDS011;6639;50.956;4.242;2023-02-28T02:12:58;8.17;;;6.00;;
13147;SDS011;6639;50.956;4.242;2023-02-28T02:15:49;7.83;;;5.77;;
13147;SDS011;6639;50.956;4.242;2023-02-28T02:18:26;6.60;;;6.00;;
13147;SDS011;6639;50.956;4.242;2023-02-28T02:24:06;7.40;;;6.43;;
13147;SDS011;6639;50.956;4.242;2023-02-28T02:27:08;6.77;;;6.17;;
13147;SDS011;6639;50.956;4.242;2023-02-28T02:29:48;6.13;;;5.63;;
13147;SDS011;6639;50.956;4.242;2023-02-28T02:35:31;8.23;;;6.07;;
13147;SDS011;6639;50.956;4.242;2023-02-28T02:38:04;7.40;;;6.70;;
13147;SDS011;6639;50.956;4.242;2023-02-28T02:40:37;8.20;;;6.70;;
13147;SDS011;6639;50.956;4.242;2023-02-28T02:43:10;7.57;;;6.73;;
13147;SDS011;6639;50.956;4.242;2023-02-28T02:45:44;12.97;;;7.00;;
13147;SDS011;6639;50.956;4.242;2023-02-28T02:48:15;7.07;;;6.40;;
13147;SDS011;6639;50.956;4.242;2023-02-28T02:50:46;6.73;;;6.13;;
13147;SDS011;6639;50.956;4.242;2023-02-28T02:53:17;10.30;;;7.23;;
13147;SDS011;6639;50.956;4.242;2023-02-28T02:55:48;7.17;;;6.33;;
13147;SDS011;6639;50.956;4.242;2023-02-28T02:58:20;6.67;;;6.07;;
13147;SDS011;6639;50.956;4.242;2023-02-28T03:00:52;9.10;;;6.77;;
13147;SDS011;6639;50.956;4.242;2023-02-28T03:03:23;6.83;;;5.97;;
13147;SDS011;6639;50.956;4.242;2023-02-28T03:05:56;7.87;;;6.73;;
13147;SDS011;6639;50.956;4.242;2023-02-28T03:08:24;7.13;;;6.43;;
13147;SDS011;6639;50.956;4.242;2023-02-28T03:10:54;9.20;;;6.97;;
13147;SDS011;6639;50.956;4.242;2023-02-28T03:16:35;6.97;;;6.27;;
13147;SDS011;6639;50.956;4.242;2023-02-28T03:22:17;7.03;;;6.43;;
13147;SDS011;6639;50.956;4.242;2023-02-28T03:24:59;8.40;;;6.20;;
13147;SDS011;6639;50.956;4.242;2023-02-28T03:27:33;8.77;;;7.30;;
13147;SDS011;6639;50.956;4.242;2023-02-28T03:30:06;7.57;;;6.60;;
13147;SDS011;6639;50.956;4.242;2023-02-28T03:32:38;7.77;;;6.97;;
13147;SDS011;6639;50.956;4.242;2023-02-28T03:35:09;7.97;;;7.17;;
13147;SDS011;6639;50.956;4.242;2023-02-28T03:37:41;7.70;;;6.90;;
13147;SDS011;6639;50.956;4.242;2023-02-28T03:40:12;7.50;;;6.77;;
13147;SDS011;6639;50.956;4.242;2023-02-28T03:42:42;8.27;;;6.90;;
13147;SDS011;6639;50.956;4.242;2023-02-28T03:45:13;7.20;;;6.50;;
13147;SDS011;6639;50.956;4.242;2023-02-28T03:47:44;7.60;;;6.87;;
13147;SDS011;6639;50.956;4.242;2023-02-28T03:50:16;9.53;;;6.77;;
13147;SDS011;6639;50.956;4.242;2023-02-28T03:52:48;7.43;;;6.73;;
13147;SDS011;6639;50.956;4.242;2023-02-28T03:55:17;9.50;;;7.20;;
13147;SDS011;6639;50.956;4.242;2023-02-28T03:57:49;7.40;;;6.70;;
13147;SDS011;6639;50.956;4.242;2023-02-28T04:00:25;7.27;;;6.57;;
13147;SDS011;6639;50.956;4.242;2023-02-28T04:02:55;8.37;;;7.50;;
13147;SDS011;6639;50.956;4.242;2023-02-28T04:05:23;7.87;;;7.07;;
13147;SDS011;6639;50.956;4.242;2023-02-28T04:07:53;8.27;;;7.23;;
13147;SDS011;6639;50.956;4.242;2023-02-28T04:10:20;8.23;;;6.53;;
13147;SDS011;6639;50.956;4.242;2023-02-28T04:12:50;10.00;;;7.70;;
13147;SDS011;6639;50.956;4.242;2023-02-28T04:15:17;7.23;;;6.20;;
13147;SDS011;6639;50.956;4.242;2023-02-28T04:17:49;7.63;;;6.90;;
13147;SDS011;6639;50.956;4.242;2023-02-28T04:20:16;7.90;;;6.33;;
13147;SDS011;6639;50.956;4.242;2023-02-28T04:22:44;8.23;;;7.43;;
13147;SDS011;6639;50.956;4.242;2023-02-28T04:25:12;8.80;;;7.17;;
13147;SDS011;6639;50.956;4.242;2023-02-28T04:27:39;8.20;;;7.40;;
13147;SDS011;6639;50.956;4.242;2023-02-28T04:30:06;7.97;;;7.17;;
13147;SDS011;6639;50.956;4.242;2023-02-28T04:32:34;7.57;;;6.77;;
13147;SDS011;6639;50.956;4.242;2023-02-28T04:35:02;8.80;;;7.53;;
13147;SDS011;6639;50.956;4.242;2023-02-28T04:37:30;9.87;;;7.37;;
13147;SDS011;6639;50.956;4.242;2023-02-28T04:39:59;11.20;;;8.07;;
13147;SDS011;6639;50.956;4.242;2023-02-28T04:42:28;11.40;;;8.37;;
13147;SDS011;6639;50.956;4.242;2023-02-28T04:45:00;11.67;;;8.00;;
13147;SDS011;6639;50.956;4.242;2023-02-28T04:47:28;9.03;;;8.13;;
13147;SDS011;6639;50.956;4.242;2023-02-28T04:49:55;10.17;;;7.20;;
13147;SDS011;6639;50.956;4.242;2023-02-28T04:52:22;15.03;;;8.27;;
13147;SDS011;6639;50.956;4.242;2023-02-28T04:54:51;9.90;;;7.20;;
13147;SDS011;6639;50.956;4.242;2023-02-28T04:57:17;9.70;;;8.30;;
13147;SDS011;6639;50.956;4.242;2023-02-28T04:59:46;9.97;;;8.13;;
13147;SDS011;6639;50.956;4.242;2023-02-28T05:02:16;8.90;;;7.53;;
13147;SDS011;6639;50.956;4.242;2023-02-28T05:04:42;11.03;;;8.17;;
13147;SDS011;6639;50.956;4.242;2023-02-28T05:07:09;8.77;;;7.87;;
13147;SDS011;6639;50.956;4.242;2023-02-28T05:09:36;9.63;;;7.60;;
13147;SDS011;6639;50.956;4.242;2023-02-28T05:12:03;8.70;;;7.90;;
13147;SDS011;6639;50.956;4.242;2023-02-28T05:14:30;10.43;;;7.93;;
13147;SDS011;6639;50.956;4.242;2023-02-28T05:16:59;8.60;;;7.80;;
13147;SDS011;6639;50.956;4.242;2023-02-28T05:19:26;9.03;;;8.13;;
13147;SDS011;6639;50.956;4.242;2023-02-28T05:21:54;8.57;;;7.77;;
13147;SDS011;6639;50.956;4.242;2023-02-28T05:24:21;8.57;;;7.67;;
13147;SDS011;6639;50.956;4.242;2023-02-28T05:26:50;9.33;;;8.33;;
13147;SDS011;6639;50.956;4.242;2023-02-28T05:29:19;8.70;;;7.87;;
13147;SDS011;6639;50.956;4.242;2023-02-28T05:31:46;10.70;;;7.17;;
13147;SDS011;6639;50.956;4.242;2023-02-28T05:34:14;10.87;;;8.07;;
13147;SDS011;6639;50.956;4.242;2023-02-28T05:36:41;8.57;;;7.67;;
13147;SDS011;6639;50.956;4.242;2023-02-28T05:39:08;8.37;;;7.67;;
13147;SDS011;6639;50.956;4.242;2023-02-28T05:41:38;9.27;;;8.17;;
13147;SDS011;6639;50.956;4.242;2023-02-28T05:44:06;11.40;;;7.70;;
13147;SDS011;6639;50.956;4.242;2023-02-28T05:46:32;9.10;;;8.13;;
13147;SDS011;6639;50.956;4.242;2023-02-28T05:48:59;11.13;;;8.20;;
13147;SDS011;6639;50.956;4.242;2023-02-28T05:51:28;8.00;;;7.20;;
13147;SDS011;6639;50.956;4.242;2023-02-28T05:53:58;8.80;;;7.30;;
13147;SDS011;6639;50.956;4.242;2023-02-28T05:56:26;7.90;;;7.20;;
13147;SDS011;6639;50.956;4.242;2023-02-28T05:58:53;8.73;;;7.43;;
13147;SDS011;6639;50.956;4.242;2023-02-28T06:01:25;8.00;;;7.20;;
13147;SDS011;6639;50.956;4.242;2023-02-28T06:03:59;7.33;;;6.73;;
13147;SDS011;6639;50.956;4.242;2023-02-28T06:06:27;9.13;;;8.00;;
13147;SDS011;6639;50.956;4.242;2023-02-28T06:08:55;10.27;;;7.73;;
13147;SDS011;6639;50.956;4.242;2023-02-28T06:11:23;10.07;;;7.50;;
13147;SDS011;6639;50.956;4.242;2023-02-28T06:13:52;9.50;;;7.13;;
13147;SDS011;6639;50.956;4.242;2023-02-28T06:16:20;10.20;;;6.83;;
13147;SDS011;6639;50.956;4.242;2023-02-28T06:18:47;8.20;;;6.97;;
13147;SDS011;6639;50.956;4.242;2023-02-28T06:21:14;8.13;;;6.87;;
13147;SDS011;6639;50.956;4.242;2023-02-28T06:23:43;9.17;;;7.13;;
13147;SDS011;6639;50.956;4.242;2023-02-28T06:26:11;7.50;;;6.73;;
13147;SDS011;6639;50.956;4.242;2023-02-28T06:28:38;10.27;;;6.80;;
13147;SDS011;6639;50.956;4.242;2023-02-28T06:31:06;9.07;;;7.07;;
13147;SDS011;6639;50.956;4.242;2023-02-28T06:33:33;7.30;;;6.60;;
13147;SDS011;6639;50.956;4.242;2023-02-28T06:36:01;8.47;;;6.73;;
13147;SDS011;6639;50.956;4.242;2023-02-28T06:38:28;7.67;;;6.80;;
13147;SDS011;6639;50.956;4.242;2023-02-28T06:40:57;11.03;;;6.00;;
13147;SDS011;6639;50.956;4.242;2023-02-28T06:43:25;9.80;;;7.03;;
13147;SDS011;6639;50.956;4.242;2023-02-28T06:45:54;11.43;;;7.13;;
13147;SDS011;6639;50.956;4.242;2023-02-28T06:48:22;8.80;;;7.37;;
13147;SDS011;6639;50.956;4.242;2023-02-28T06:50:50;7.70;;;7.00;;
13147;SDS011;6639;50.956;4.242;2023-02-28T06:53:17;11.93;;;6.67;;
13147;SDS011;6639;50.956;4.242;2023-02-28T06:55:43;8.87;;;6.80;;
13147;SDS011;6639;50.956;4.242;2023-02-28T06:58:12;7.07;;;6.37;;
13147;SDS011;6639;50.956;4.242;2023-02-28T07:00:43;8.43;;;6.67;;
13147;SDS011;6639;50.956;4.242;2023-02-28T07:03:10;8.30;;;6.93;;
13147;SDS011;6639;50.956;4.242;2023-02-28T07:05:40;7.07;;;6.37;;
13147;SDS011;6639;50.956;4.242;2023-02-28T07:08:07;9.80;;;7.10;;
13147;SDS011;6639;50.956;4.242;2023-02-28T07:10:36;8.17;;;7.30;;
13147;SDS011;6639;50.956;4.242;2023-02-28T07:13:03;7.30;;;6.60;;
13147;SDS011;6639;50.956;4.242;2023-02-28T07:15:32;10.53;;;7.07;;
13147;SDS011;6639;50.956;4.242;2023-02-28T07:17:59;9.10;;;7.00;;
13147;SDS011;6639;50.956;4.242;2023-02-28T07:20:26;8.17;;;7.37;;
13147;SDS011;6639;50.956;4.242;2023-02-28T07:22:53;8.10;;;7.10;;
13147;SDS011;6639;50.956;4.242;2023-02-28T07:25:21;10.67;;;6.93;;
13147;SDS011;6639;50.956;4.242;2023-02-28T07:27:48;9.87;;;6.67;;
13147;SDS011;6639;50.956;4.242;2023-02-28T07:30:15;7.77;;;6.97;;
13147;SDS011;6639;50.956;4.242;2023-02-28T07:32:44;10.87;;;6.90;;
13147;SDS011;6639;50.956;4.242;2023-02-28T07:35:11;7.63;;;6.93;;
13147;SDS011;6639;50.956;4.242;2023-02-28T07:37:40;7.77;;;6.90;;
13147;SDS011;6639;50.956;4.242;2023-02-28T07:40:09;8.52;;;6.32;;
13147;SDS011;6639;50.956;4.242;2023-02-28T07:42:38;8.70;;;6.40;;
13147;SDS011;6639;50.956;4.242;2023-02-28T07:45:07;7.37;;;6.67;;
13147;SDS011;6639;50.956;4.242;2023-02-28T07:47:36;6.73;;;5.57;;
13147;SDS011;6639;50.956;4.242;2023-02-28T07:50:05;8.10;;;6.50;;
13147;SDS011;6639;50.956;4.242;2023-02-28T07:52:34;10.27;;;6.80;;
13147;SDS011;6639;50.956;4.242;2023-02-28T07:55:03;7.63;;;5.90;;
13147;SDS011;6639;50.956;4.242;2023-02-28T07:57:30;7.65;;;5.85;;
13147;SDS011;6639;50.956;4.242;2023-02-28T07:59:58;6.80;;;5.80;;
13147;SDS011;6639;50.956;4.242;2023-02-28T08:02:25;8.53;;;5.57;;
13147;SDS011;6639;50.956;4.242;2023-02-28T08:04:52;8.82;;;6.07;;
13147;SDS011;6639;50.956;4.242;2023-02-28T08:07:20;7.20;;;5.88;;
13147;SDS011;6639;50.956;4.242;2023-02-28T08:09:47;6.13;;;4.95;;
13147;SDS011;6639;50.956;4.242;2023-02-28T08:12:14;8.48;;;5.57;;
13147;SDS011;6639;50.956;4.242;2023-02-28T08:14:41;6.70;;;5.60;;
13147;SDS011;6639;50.956;4.242;2023-02-28T08:17:09;6.78;;;5.18;;
13147;SDS011;6639;50.956;4.242;2023-02-28T08:19:36;5.73;;;5.20;;
13147;SDS011;6639;50.956;4.242;2023-02-28T08:22:03;5.87;;;5.00;;
13147;SDS011;6639;50.956;4.242;2023-02-28T08:24:31;5.30;;;4.85;;
13147;SDS011;6639;50.956;4.242;2023-02-28T08:26:58;5.47;;;4.63;;
13147;SDS011;6639;50.956;4.242;2023-02-28T08:29:25;6.10;;;4.13;;
13147;SDS011;6639;50.956;4.242;2023-02-28T08:31:52;7.77;;;4.80;;
13147;SDS011;6639;50.956;4.242;2023-02-28T08:34:19;5.18;;;4.68;;
13147;SDS011;6639;50.956;4.242;2023-02-28T08:36:46;4.43;;;4.03;;
13147;SDS011;6639;50.956;4.242;2023-02-28T08:39:13;7.50;;;4.00;;
13147;SDS011;6639;50.956;4.242;2023-02-28T08:41:43;4.03;;;3.63;;
13147;SDS011;6639;50.956;4.242;2023-02-28T08:44:10;5.07;;;4.23;;
13147;SDS011;6639;50.956;4.242;2023-02-28T08:46:37;3.60;;;3.30;;
13147;SDS011;6639;50.956;4.242;2023-02-28T08:49:04;3.90;;;3.17;;
13147;SDS011;6639;50.956;4.242;2023-02-28T08:51:32;4.17;;;3.50;;
13147;SDS011;6639;50.956;4.242;2023-02-28T08:53:59;3.37;;;3.07;;
13147;SDS011;6639;50.956;4.242;2023-02-28T08:56:27;3.90;;;2.73;;
13147;SDS011;6639;50.956;4.242;2023-02-28T08:58:56;4.70;;;3.20;;
13147;SDS011;6639;50.956;4.242;2023-02-28T09:01:24;4.00;;;2.83;;
13147;SDS011;6639;50.956;4.242;2023-02-28T09:03:53;3.80;;;3.07;;
13147;SDS011;6639;50.956;4.242;2023-02-28T09:06:21;3.33;;;2.67;;
13147;SDS011;6639;50.956;4.242;2023-02-28T09:08:49;2.40;;;2.20;;
13147;SDS011;6639;50.956;4.242;2023-02-28T09:11:17;3.80;;;2.60;;
13147;SDS011;6639;50.956;4.242;2023-02-28T09:13:45;2.90;;;2.23;;
13147;SDS011;6639;50.956;4.242;2023-02-28T09:16:14;3.20;;;2.47;;
13147;SDS011;6639;50.956;4.242;2023-02-28T09:18:43;2.47;;;2.27;;
13147;SDS011;6639;50.956;4.242;2023-02-28T09:21:12;2.92;;;2.70;;
13147;SDS011;6639;50.956;4.242;2023-02-28T09:23:41;4.95;;;2.70;;
13147;SDS011;6639;50.956;4.242;2023-02-28T09:26:11;3.17;;;2.53;;
13147;SDS011;6639;50.956;4.242;2023-02-28T09:28:40;2.53;;;2.33;;
13147;SDS011;6639;50.956;4.242;2023-02-28T09:31:10;4.95;;;3.08;;
13147;SDS011;6639;50.956;4.242;2023-02-28T09:33:41;3.35;;;2.63;;
13147;SDS011;6639;50.956;4.242;2023-02-28T09:36:08;4.43;;;2.83;;
13147;SDS011;6639;50.956;4.242;2023-02-28T09:38:35;3.83;;;2.33;;
13147;SDS011;6639;50.956;4.242;2023-02-28T09:41:02;2.30;;;2.10;;
13147;SDS011;6639;50.956;4.242;2023-02-28T09:43:37;2.70;;;2.50;;
13147;SDS011;6639;50.956;4.242;2023-02-28T09:46:08;3.85;;;1.77;;
13147;SDS011;6639;50.956;4.242;2023-02-28T09:48:48;3.05;;;2.08;;
13147;SDS011;6639;50.956;4.242;2023-02-28T09:51:23;2.10;;;1.90;;
13147;SDS011;6639;50.956;4.242;2023-02-28T09:53:56;2.22;;;2.03;;
13147;SDS011;6639;50.956;4.242;2023-02-28T09:56:24;2.70;;;1.85;;
13147;SDS011;6639;50.956;4.242;2023-02-28T09:58:58;2.13;;;1.92;;
13147;SDS011;6639;50.956;4.242;2023-02-28T10:01:30;2.10;;;2.00;;
13147;SDS011;6639;50.956;4.242;2023-02-28T10:04:03;1.92;;;1.83;;
13147;SDS011;6639;50.956;4.242;2023-02-28T10:06:37;1.98;;;1.80;;
13147;SDS011;6639;50.956;4.242;2023-02-28T10:09:11;1.65;;;1.55;;
13147;SDS011;6639;50.956;4.242;2023-02-28T10:11:45;3.42;;;1.80;;
13147;SDS011;6639;50.956;4.242;2023-02-28T10:14:15;3.80;;;2.10;;
13147;SDS011;6639;50.956;4.242;2023-02-28T10:16:47;2.78;;;1.73;;
13147;SDS011;6639;50.956;4.242;2023-02-28T10:19:21;2.72;;;2.03;;
13147;SDS011;6639;50.956;4.242;2023-02-28T10:21:54;3.00;;;1.95;;
13147;SDS011;6639;50.956;4.242;2023-02-28T10:24:26;2.30;;;2.10;;
13147;SDS011;6639;50.956;4.242;2023-02-28T10:26:58;2.35;;;1.95;;
13147;SDS011;6639;50.956;4.242;2023-02-28T10:29:27;1.90;;;1.80;;
13147;SDS011;6639;50.956;4.242;2023-02-28T10:31:59;2.53;;;1.88;;
13147;SDS011;6639;50.956;4.242;2023-02-28T10:34:28;1.45;;;1.40;;
13147;SDS011;6639;50.956;4.242;2023-02-28T10:36:55;2.25;;;1.88;;
13147;SDS011;6639;50.956;4.242;2023-02-28T10:39:39;4.35;;;2.13;;
13147;SDS011;6639;50.956;4.242;2023-02-28T10:42:18;2.00;;;1.83;;
13147;SDS011;6639;50.956;4.242;2023-02-28T10:45:04;1.60;;;1.50;;
13147;SDS011;6639;50.956;4.242;2023-02-28T10:47:34;1.65;;;1.55;;
13147;SDS011;6639;50.956;4.242;2023-02-28T10:52:54;1.73;;;1.60;;
13147;SDS011;6639;50.956;4.242;2023-02-28T10:55:21;2.15;;;1.77;;
13147;SDS011;6639;50.956;4.242;2023-02-28T10:57:50;1.35;;;1.35;;
13147;SDS011;6639;50.956;4.242;2023-02-28T11:00:19;1.30;;;1.20;;
13147;SDS011;6639;50.956;4.242;2023-02-28T11:02:49;2.75;;;1.60;;
13147;SDS011;6639;50.956;4.242;2023-02-28T11:05:23;1.63;;;1.52;;
13147;SDS011;6639;50.956;4.242;2023-02-28T11:07:52;1.80;;;1.70;;
13147;SDS011;6639;50.956;4.242;2023-02-28T11:10:21;1.50;;;1.40;;
13147;SDS011;6639;50.956;4.242;2023-02-28T11:12:53;1.60;;;1.50;;
13147;SDS011;6639;50.956;4.242;2023-02-28T11:15:22;1.60;;;1.50;;
13147;SDS011;6639;50.956;4.242;2023-02-28T11:17:55;1.88;;;1.42;;
13147;SDS011;6639;50.956;4.242;2023-02-28T11:20:25;1.48;;;1.38;;
13147;SDS011;6639;50.956;4.242;2023-02-28T11:22:54;3.63;;;1.70;;
13147;SDS011;6639;50.956;4.242;2023-02-28T11:25:24;2.30;;;2.10;;
13147;SDS011;6639;50.956;4.242;2023-02-28T11:27:53;2.10;;;1.92;;
13147;SDS011;6639;50.956;4.242;2023-02-28T11:30:32;1.70;;;1.60;;
13147;SDS011;6639;50.956;4.242;2023-02-28T11:33:14;2.10;;;2.00;;
13147;SDS011;6639;50.956;4.242;2023-02-28T11:35:50;2.05;;;1.85;;
13147;SDS011;6639;50.956;4.242;2023-02-28T11:38:18;2.40;;;2.20;;
13147;SDS011;6639;50.956;4.242;2023-02-28T11:40:46;2.47;;;1.83;;
13147;SDS011;6639;50.956;4.242;2023-02-28T11:43:28;2.28;;;1.83;;
13147;SDS011;6639;50.956;4.242;2023-02-28T11:46:05;1.80;;;1.70;;
13147;SDS011;6639;50.956;4.242;2023-02-28T11:48:43;2.00;;;1.90;;
13147;SDS011;6639;50.956;4.242;2023-02-28T11:51:21;3.25;;;2.00;;
13147;SDS011;6639;50.956;4.242;2023-02-28T11:56:48;2.40;;;2.20;;
13147;SDS011;6639;50.956;4.242;2023-02-28T11:59:37;4.57;;;2.40;;
13147;SDS011;6639;50.956;4.242;2023-02-28T12:02:23;3.30;;;2.40;;
13147;SDS011;6639;50.956;4.242;2023-02-28T12:05:08;2.88;;;1.95;;
13147;SDS011;6639;50.956;4.242;2023-02-28T12:07:46;3.47;;;2.33;;
13147;SDS011;6639;50.956;4.242;2023-02-28T12:10:22;3.17;;;2.15;;
13147;SDS011;6639;50.956;4.242;2023-02-28T12:12:54;2.15;;;2.00;;
13147;SDS011;6639;50.956;4.242;2023-02-28T12:15:48;3.60;;;1.80;;
13147;SDS011;6639;50.956;4.242;2023-02-28T12:18:38;2.97;;;2.20;;
13147;SDS011;6639;50.956;4.242;2023-02-28T12:21:18;4.95;;;2.20;;
13147;SDS011;6639;50.956;4.242;2023-02-28T12:24:05;2.50;;;2.30;;
13147;SDS011;6639;50.956;4.242;2023-02-28T12:26:48;1.63;;;1.52;;
13147;SDS011;6639;50.956;4.242;2023-02-28T12:29:17;2.78;;;2.20;;
13147;SDS011;6639;50.956;4.242;2023-02-28T12:31:49;2.17;;;1.98;;
13147;SDS011;6639;50.956;4.242;2023-02-28T12:34:20;1.98;;;1.88;;
13147;SDS011;6639;50.956;4.242;2023-02-28T12:36:55;1.92;;;1.70;;
13147;SDS011;6639;50.956;4.242;2023-02-28T12:39:28;3.13;;;1.70;;
13147;SDS011;6639;50.956;4.242;2023-02-28T12:41:59;2.13;;;1.90;;
13147;SDS011;6639;50.956;4.242;2023-02-28T12:44:30;3.53;;;1.85;;
13147;SDS011;6639;50.956;4.242;2023-02-28T12:47:02;2.78;;;2.05;;
13147;SDS011;6639;50.956;4.242;2023-02-28T12:49:33;2.30;;;2.10;;
13147;SDS011;6639;50.956;4.242;2023-02-28T12:52:06;1.80;;;1.70;;
13147;SDS011;6639;50.956;4.242;2023-02-28T12:54:38;2.30;;;2.10;;
13147;SDS011;6639;50.956;4.242;2023-02-28T12:57:12;2.65;;;2.15;;
13147;SDS011;6639;50.956;4.242;2023-02-28T12:59:45;2.03;;;1.83;;
13147;SDS011;6639;50.956;4.242;2023-02-28T13:05:25;1.70;;;1.60;;
13147;SDS011;6639;50.956;4.242;2023-02-28T13:11:08;1.85;;;1.75;;
13147;SDS011;6639;50.956;4.242;2023-02-28T13:13:55;2.25;;;1.95;;
13147;SDS011;6639;50.956;4.242;2023-02-28T13:16:25;1.77;;;1.65;;
13147;SDS011;6639;50.956;4.242;2023-02-28T13:18:52;2.17;;;1.83;;
13147;SDS011;6639;50.956;4.242;2023-02-28T13:21:40;2.00;;;1.80;;
13147;SDS011;6639;50.956;4.242;2023-02-28T13:24:11;2.10;;;1.90;;
13147;SDS011;6639;50.956;4.242;2023-02-28T13:27:11;2.53;;;2.00;;
13147;SDS011;6639;50.956;4.242;2023-02-28T13:29:56;2.80;;;2.20;;
13147;SDS011;6639;50.956;4.242;2023-02-28T13:32:31;3.90;;;2.15;;
13147;SDS011;6639;50.956;4.242;2023-02-28T13:44:09;3.30;;;2.20;;
13147;SDS011;6639;50.956;4.242;2023-02-28T13:49:37;2.40;;;1.92;;
13147;SDS011;6639;50.956;4.242;2023-02-28T13:52:07;3.20;;;2.22;;
13147;SDS011;6639;50.956;4.242;2023-02-28T13:55:17;3.38;;;2.42;;
13147;SDS011;6639;50.956;4.242;2023-02-28T13:58:02;2.20;;;2.10;;
13147;SDS011;6639;50.956;4.242;2023-02-28T14:00:52;2.28;;;2.13;;
13147;SDS011;6639;50.956;4.242;2023-02-28T14:03:36;2.42;;;2.20;;
13147;SDS011;6639;50.956;4.242;2023-02-28T14:06:28;2.60;;;2.40;;
13147;SDS011;6639;50.956;4.242;2023-02-28T14:08:58;2.10;;;2.00;;
13147;SDS011;6639;50.956;4.242;2023-02-28T14:11:32;2.70;;;2.50;;
13147;SDS011;6639;50.956;4.242;2023-02-28T14:14:03;3.15;;;2.25;;
13147;SDS011;6639;50.956;4.242;2023-02-28T14:16:36;2.70;;;2.50;;
13147;SDS011;6639;50.956;4.242;2023-02-28T14:19:10;3.58;;;2.55;;
13147;SDS011;6639;50.956;4.242;2023-02-28T14:21:47;2.60;;;2.40;;
13147;SDS011;6639;50.956;4.242;2023-02-28T14:24:29;2.28;;;2.08;;
13147;SDS011;6639;50.956;4.242;2023-02-28T14:27:21;2.50;;;2.30;;
13147;SDS011;6639;50.956;4.242;2023-02-28T14:30:20;2.70;;;2.45;;
13147;SDS011;6639;50.956;4.242;2023-02-28T14:36:21;2.33;;;2.15;;
13147;SDS011;6639;50.956;4.242;2023-02-28T14:38:55;2.50;;;2.38;;
13147;SDS011;6639;50.956;4.242;2023-02-28T14:41:27;2.78;;;2.17;;
13147;SDS011;6639;50.956;4.242;2023-02-28T14:43:56;3.40;;;2.78;;
13147;SDS011;6639;50.956;4.242;2023-02-28T14:46:33;2.67;;;2.47;;
13147;SDS011;6639;50.956;4.242;2023-02-28T14:49:07;2.63;;;2.42;;
13147;SDS011;6639;50.956;4.242;2023-02-28T14:51:42;2.75;;;2.55;;
13147;SDS011;6639;50.956;4.242;2023-02-28T14:54:12;2.95;;;2.75;;
13147;SDS011;6639;50.956;4.242;2023-02-28T14:56:41;3.35;;;2.70;;
13147;SDS011;6639;50.956;4.242;2023-02-28T14:59:23;2.63;;;2.42;;
13147;SDS011;6639;50.956;4.242;2023-02-28T15:01:54;3.10;;;2.80;;
13147;SDS011;6639;50.956;4.242;2023-02-28T15:04:45;2.63;;;2.50;;
13147;SDS011;6639;50.956;4.242;2023-02-28T15:07:19;2.88;;;2.50;;
13147;SDS011;6639;50.956;4.242;2023-02-28T15:10:06;2.75;;;2.50;;
13147;SDS011;6639;50.956;4.242;2023-02-28T15:12:41;2.75;;;2.55;;
13147;SDS011;6639;50.956;4.242;2023-02-28T15:15:16;3.67;;;2.63;;
13147;SDS011;6639;50.956;4.242;2023-02-28T15:17:48;3.08;;;2.65;;
13147;SDS011;6639;50.956;4.242;2023-02-28T15:20:19;4.75;;;2.50;;
13147;SDS011;6639;50.956;4.242;2023-02-28T15:22:47;5.57;;;2.92;;
13147;SDS011;6639;50.956;4.242;2023-02-28T15:25:19;2.25;;;2.05;;
13147;SDS011;6639;50.956;4.242;2023-02-28T15:27:48;2.70;;;2.50;;
13147;SDS011;6639;50.956;4.242;2023-02-28T15:30:20;3.58;;;2.50;;
13147;SDS011;6639;50.956;4.242;2023-02-28T15:33:18;3.13;;;2.63;;
13147;SDS011;6639;50.956;4.242;2023-02-28T15:35:47;2.70;;;2.50;;
13147;SDS011;6639;50.956;4.242;2023-02-28T15:38:16;3.00;;;2.63;;
13147;SDS011;6639;50.956;4.242;2023-02-28T15:40:49;3.17;;;2.70;;
13147;SDS011;6639;50.956;4.242;2023-02-28T15:43:26;2.85;;;2.65;;
13147;SDS011;6639;50.956;4.242;2023-02-28T15:45:56;3.85;;;2.40;;
13147;SDS011;6639;50.956;4.242;2023-02-28T15:48:27;4.85;;;2.97;;
13147;SDS011;6639;50.956;4.242;2023-02-28T15:50:57;2.40;;;2.20;;
13147;SDS011;6639;50.956;4.242;2023-02-28T15:53:35;3.67;;;2.53;;
13147;SDS011;6639;50.956;4.242;2023-02-28T15:56:06;3.47;;;2.45;;
13147;SDS011;6639;50.956;4.242;2023-02-28T15:58:44;4.72;;;2.95;;
13147;SDS011;6639;50.956;4.242;2023-02-28T16:01:19;2.60;;;2.40;;
13147;SDS011;6639;50.956;4.242;2023-02-28T16:03:53;5.10;;;2.97;;
13147;SDS011;6639;50.956;4.242;2023-02-28T16:06:26;4.75;;;2.63;;